sensor_id;sensor_type;location;lat;lon;timestamp;P1;durP1;ratioP1;P2;durP2;ratioP2
32347;SDS011;18821;44.800;10.326;2022-09-12T00:00:00;7.80;;;4.15;;
32347;SDS011;18821;44.800;10.326;2022-09-12T00:02:26;7.20;;;3.83;;
32347;SDS011;18821;44.800;10.326;2022-09-12T00:04:52;7.85;;;3.70;;
32347;SDS011;18821;44.800;10.326;2022-09-12T00:07:18;7.90;;;4.13;;
32347;SDS011;18821;44.800;10.326;2022-09-12T00:09:44;5.60;;;4.10;;
32347;SDS011;18821;44.800;10.326;2022-09-12T00:12:09;4.32;;;3.35;;
32347;SDS011;18821;44.800;10.326;2022-09-12T00:14:35;8.68;;;4.60;;
32347;SDS011;18821;44.800;10.326;2022-09-12T00:17:01;5.38;;;3.80;;
32347;SDS011;18821;44.800;10.326;2022-09-12T00:19:27;6.63;;;4.45;;
32347;SDS011;18821;44.800;10.326;2022-09-12T00:21:54;12.15;;;3.83;;
32347;SDS011;18821;44.800;10.326;2022-09-12T00:24:21;7.25;;;3.78;;
32347;SDS011;18821;44.800;10.326;2022-09-12T00:26:47;5.85;;;3.88;;
32347;SDS011;18821;44.800;10.326;2022-09-12T00:29:17;6.32;;;4.00;;
32347;SDS011;18821;44.800;10.326;2022-09-12T00:31:45;5.50;;;3.65;;
32347;SDS011;18821;44.800;10.326;2022-09-12T00:34:11;4.43;;;3.50;;
32347;SDS011;18821;44.800;10.326;2022-09-12T00:36:38;5.88;;;3.13;;
32347;SDS011;18821;44.800;10.326;2022-09-12T00:39:04;9.02;;;3.83;;
32347;SDS011;18821;44.800;10.326;2022-09-12T00:43:59;6.75;;;3.75;;
32347;SDS011;18821;44.800;10.326;2022-09-12T00:49:13;15.48;;;4.78;;
32347;SDS011;18821;44.800;10.326;2022-09-12T00:51:49;8.18;;;3.78;;
32347;SDS011;18821;44.800;10.326;2022-09-12T00:54:20;7.05;;;3.42;;
32347;SDS011;18821;44.800;10.326;2022-09-12T00:56:49;5.50;;;3.75;;
32347;SDS011;18821;44.800;10.326;2022-09-12T00:59:23;5.28;;;3.50;;
32347;SDS011;18821;44.800;10.326;2022-09-12T01:01:53;8.93;;;4.05;;
32347;SDS011;18821;44.800;10.326;2022-09-12T01:04:21;6.10;;;3.70;;
32347;SDS011;18821;44.800;10.326;2022-09-12T01:06:48;7.47;;;3.70;;
32347;SDS011;18821;44.800;10.326;2022-09-12T01:09:16;4.68;;;3.00;;
32347;SDS011;18821;44.800;10.326;2022-09-12T01:11:45;7.05;;;3.55;;
32347;SDS011;18821;44.800;10.326;2022-09-12T01:14:13;6.07;;;3.17;;
32347;SDS011;18821;44.800;10.326;2022-09-12T01:16:40;7.50;;;3.28;;
32347;SDS011;18821;44.800;10.326;2022-09-12T01:30:22;9.52;;;4.13;;
32347;SDS011;18821;44.800;10.326;2022-09-12T01:40:28;5.90;;;3.40;;
32347;SDS011;18821;44.800;10.326;2022-09-12T01:45:55;13.45;;;3.88;;
32347;SDS011;18821;44.800;10.326;2022-09-12T01:48:43;7.13;;;3.38;;
32347;SDS011;18821;44.800;10.326;2022-09-12T01:51:17;8.15;;;3.65;;
32347;SDS011;18821;44.800;10.326;2022-09-12T01:54:07;7.43;;;3.00;;
32347;SDS011;18821;44.800;10.326;2022-09-12T01:59:08;7.05;;;3.72;;
32347;SDS011;18821;44.800;10.326;2022-09-12T02:01:46;8.65;;;4.13;;
32347;SDS011;18821;44.800;10.326;2022-09-12T02:04:27;10.80;;;4.00;;
32347;SDS011;18821;44.800;10.326;2022-09-12T02:12:40;6.40;;;3.55;;
32347;SDS011;18821;44.800;10.326;2022-09-12T02:15:17;6.90;;;3.70;;
32347;SDS011;18821;44.800;10.326;2022-09-12T02:17:46;8.45;;;3.10;;
32347;SDS011;18821;44.800;10.326;2022-09-12T02:20:19;12.68;;;3.20;;
32347;SDS011;18821;44.800;10.326;2022-09-12T02:23:06;5.30;;;3.10;;
32347;SDS011;18821;44.800;10.326;2022-09-12T02:25:37;6.00;;;3.10;;
32347;SDS011;18821;44.800;10.326;2022-09-12T02:28:21;4.55;;;2.80;;
32347;SDS011;18821;44.800;10.326;2022-09-12T02:31:13;12.80;;;2.75;;
32347;SDS011;18821;44.800;10.326;2022-09-12T02:39:19;6.25;;;2.83;;
32347;SDS011;18821;44.800;10.326;2022-09-12T02:41:46;5.85;;;2.40;;
32347;SDS011;18821;44.800;10.326;2022-09-12T02:44:15;5.78;;;2.20;;
32347;SDS011;18821;44.800;10.326;2022-09-12T02:46:45;5.70;;;2.35;;
32347;SDS011;18821;44.800;10.326;2022-09-12T02:49:15;5.93;;;2.45;;
32347;SDS011;18821;44.800;10.326;2022-09-12T02:51:42;5.93;;;2.30;;
32347;SDS011;18821;44.800;10.326;2022-09-12T02:54:08;5.10;;;2.15;;
32347;SDS011;18821;44.800;10.326;2022-09-12T02:56:39;9.68;;;2.85;;
32347;SDS011;18821;44.800;10.326;2022-09-12T02:59:07;3.75;;;2.08;;
32347;SDS011;18821;44.800;10.326;2022-09-12T03:06:44;5.90;;;2.20;;
32347;SDS011;18821;44.800;10.326;2022-09-12T03:09:48;6.53;;;2.05;;
32347;SDS011;18821;44.800;10.326;2022-09-12T03:26:29;8.93;;;2.58;;
32347;SDS011;18821;44.800;10.326;2022-09-12T03:29:19;2.60;;;1.70;;
32347;SDS011;18821;44.800;10.326;2022-09-12T03:31:48;10.63;;;2.40;;
32347;SDS011;18821;44.800;10.326;2022-09-12T03:34:15;5.57;;;2.30;;
32347;SDS011;18821;44.800;10.326;2022-09-12T03:36:41;6.43;;;1.80;;
32347;SDS011;18821;44.800;10.326;2022-09-12T03:39:07;5.90;;;2.35;;
32347;SDS011;18821;44.800;10.326;2022-09-12T03:41:33;7.63;;;2.00;;
32347;SDS011;18821;44.800;10.326;2022-09-12T03:43:59;4.30;;;2.13;;
32347;SDS011;18821;44.800;10.326;2022-09-12T03:46:25;9.00;;;2.38;;
32347;SDS011;18821;44.800;10.326;2022-09-12T03:48:51;5.63;;;2.03;;
32347;SDS011;18821;44.800;10.326;2022-09-12T03:51:16;4.18;;;2.00;;
32347;SDS011;18821;44.800;10.326;2022-09-12T03:53:42;6.68;;;1.92;;
32347;SDS011;18821;44.800;10.326;2022-09-12T03:56:09;7.00;;;2.65;;
32347;SDS011;18821;44.800;10.326;2022-09-12T03:58:37;5.60;;;1.80;;
32347;SDS011;18821;44.800;10.326;2022-09-12T04:01:12;6.82;;;2.03;;
32347;SDS011;18821;44.800;10.326;2022-09-12T04:03:42;9.75;;;2.40;;
32347;SDS011;18821;44.800;10.326;2022-09-12T04:06:10;11.65;;;2.38;;
32347;SDS011;18821;44.800;10.326;2022-09-12T04:08:38;9.18;;;2.38;;
32347;SDS011;18821;44.800;10.326;2022-09-12T04:11:05;8.27;;;2.38;;
32347;SDS011;18821;44.800;10.326;2022-09-12T04:13:39;8.38;;;3.17;;
32347;SDS011;18821;44.800;10.326;2022-09-12T04:16:06;6.38;;;2.40;;
32347;SDS011;18821;44.800;10.326;2022-09-12T04:18:33;5.65;;;2.58;;
32347;SDS011;18821;44.800;10.326;2022-09-12T04:21:07;9.52;;;3.35;;
32347;SDS011;18821;44.800;10.326;2022-09-12T04:23:34;7.18;;;3.90;;
32347;SDS011;18821;44.800;10.326;2022-09-12T04:26:01;8.20;;;4.90;;
32347;SDS011;18821;44.800;10.326;2022-09-12T04:28:28;9.57;;;4.70;;
32347;SDS011;18821;44.800;10.326;2022-09-12T04:30:55;8.30;;;4.07;;
32347;SDS011;18821;44.800;10.326;2022-09-12T04:33:25;7.45;;;4.68;;
32347;SDS011;18821;44.800;10.326;2022-09-12T04:35:51;9.02;;;4.20;;
32347;SDS011;18821;44.800;10.326;2022-09-12T04:38:17;12.20;;;4.93;;
32347;SDS011;18821;44.800;10.326;2022-09-12T04:40:42;8.65;;;4.70;;
32347;SDS011;18821;44.800;10.326;2022-09-12T04:43:08;6.90;;;4.95;;
32347;SDS011;18821;44.800;10.326;2022-09-12T04:45:34;7.25;;;4.40;;
32347;SDS011;18821;44.800;10.326;2022-09-12T04:48:00;5.40;;;3.88;;
32347;SDS011;18821;44.800;10.326;2022-09-12T04:50:26;8.27;;;4.07;;
32347;SDS011;18821;44.800;10.326;2022-09-12T04:52:53;7.75;;;3.38;;
32347;SDS011;18821;44.800;10.326;2022-09-12T04:55:19;10.30;;;3.80;;
32347;SDS011;18821;44.800;10.326;2022-09-12T04:57:46;8.70;;;3.55;;
32347;SDS011;18821;44.800;10.326;2022-09-12T05:00:12;7.88;;;3.38;;
32347;SDS011;18821;44.800;10.326;2022-09-12T05:02:41;8.05;;;3.35;;
32347;SDS011;18821;44.800;10.326;2022-09-12T05:05:08;10.80;;;2.97;;
32347;SDS011;18821;44.800;10.326;2022-09-12T05:07:34;10.02;;;2.75;;
32347;SDS011;18821;44.800;10.326;2022-09-12T05:10:00;6.85;;;3.03;;
32347;SDS011;18821;44.800;10.326;2022-09-12T05:12:28;11.57;;;3.08;;
32347;SDS011;18821;44.800;10.326;2022-09-12T05:14:55;5.25;;;2.90;;
32347;SDS011;18821;44.800;10.326;2022-09-12T05:17:21;8.45;;;3.25;;
32347;SDS011;18821;44.800;10.326;2022-09-12T05:19:47;4.47;;;2.58;;
32347;SDS011;18821;44.800;10.326;2022-09-12T05:22:13;6.63;;;2.75;;
32347;SDS011;18821;44.800;10.326;2022-09-12T05:24:39;10.63;;;3.00;;
32347;SDS011;18821;44.800;10.326;2022-09-12T05:27:08;9.68;;;2.72;;
32347;SDS011;18821;44.800;10.326;2022-09-12T05:29:34;11.43;;;3.35;;
32347;SDS011;18821;44.800;10.326;2022-09-12T05:32:00;7.90;;;3.25;;
32347;SDS011;18821;44.800;10.326;2022-09-12T05:34:26;7.82;;;3.53;;
32347;SDS011;18821;44.800;10.326;2022-09-12T05:36:52;6.78;;;3.13;;
32347;SDS011;18821;44.800;10.326;2022-09-12T05:39:18;10.73;;;2.92;;
32347;SDS011;18821;44.800;10.326;2022-09-12T05:41:44;4.65;;;3.20;;
32347;SDS011;18821;44.800;10.326;2022-09-12T05:44:12;8.38;;;3.22;;
32347;SDS011;18821;44.800;10.326;2022-09-12T05:46:39;9.95;;;3.10;;
32347;SDS011;18821;44.800;10.326;2022-09-12T05:49:08;12.80;;;3.85;;
32347;SDS011;18821;44.800;10.326;2022-09-12T05:51:36;6.88;;;3.33;;
32347;SDS011;18821;44.800;10.326;2022-09-12T05:54:07;7.75;;;3.53;;
32347;SDS011;18821;44.800;10.326;2022-09-12T05:56:37;11.68;;;3.50;;
32347;SDS011;18821;44.800;10.326;2022-09-12T05:59:05;11.90;;;3.30;;
32347;SDS011;18821;44.800;10.326;2022-09-12T06:01:34;17.35;;;4.13;;
32347;SDS011;18821;44.800;10.326;2022-09-12T06:04:02;5.35;;;2.83;;
32347;SDS011;18821;44.800;10.326;2022-09-12T06:06:30;6.40;;;3.00;;
32347;SDS011;18821;44.800;10.326;2022-09-12T06:08:58;7.50;;;2.83;;
32347;SDS011;18821;44.800;10.326;2022-09-12T06:11:25;8.30;;;2.78;;
32347;SDS011;18821;44.800;10.326;2022-09-12T06:13:54;4.47;;;2.20;;
32347;SDS011;18821;44.800;10.326;2022-09-12T06:16:22;6.88;;;2.50;;
32347;SDS011;18821;44.800;10.326;2022-09-12T06:18:51;4.82;;;2.03;;
32347;SDS011;18821;44.800;10.326;2022-09-12T06:21:18;7.10;;;2.15;;
32347;SDS011;18821;44.800;10.326;2022-09-12T06:23:46;8.25;;;1.88;;
32347;SDS011;18821;44.800;10.326;2022-09-12T06:26:14;3.70;;;1.67;;
32347;SDS011;18821;44.800;10.326;2022-09-12T06:28:42;7.32;;;1.88;;
32347;SDS011;18821;44.800;10.326;2022-09-12T06:31:10;6.82;;;2.10;;
32347;SDS011;18821;44.800;10.326;2022-09-12T06:33:39;4.90;;;2.30;;
32347;SDS011;18821;44.800;10.326;2022-09-12T06:36:11;8.25;;;2.28;;
32347;SDS011;18821;44.800;10.326;2022-09-12T06:38:39;10.85;;;2.85;;
32347;SDS011;18821;44.800;10.326;2022-09-12T06:41:05;9.50;;;4.00;;
32347;SDS011;18821;44.800;10.326;2022-09-12T06:43:33;8.60;;;4.00;;
32347;SDS011;18821;44.800;10.326;2022-09-12T06:46:00;12.30;;;3.58;;
32347;SDS011;18821;44.800;10.326;2022-09-12T06:48:26;8.88;;;3.42;;
32347;SDS011;18821;44.800;10.326;2022-09-12T06:51:00;11.30;;;3.63;;
32347;SDS011;18821;44.800;10.326;2022-09-12T06:56:04;8.15;;;3.80;;
32347;SDS011;18821;44.800;10.326;2022-09-12T06:58:32;11.68;;;4.13;;
32347;SDS011;18821;44.800;10.326;2022-09-12T07:01:03;7.10;;;3.53;;
32347;SDS011;18821;44.800;10.326;2022-09-12T07:03:30;9.60;;;3.65;;
32347;SDS011;18821;44.800;10.326;2022-09-12T07:06:00;10.30;;;3.85;;
32347;SDS011;18821;44.800;10.326;2022-09-12T07:08:33;10.32;;;4.00;;
32347;SDS011;18821;44.800;10.326;2022-09-12T07:11:08;14.50;;;4.80;;
32347;SDS011;18821;44.800;10.326;2022-09-12T07:13:36;9.38;;;4.47;;
32347;SDS011;18821;44.800;10.326;2022-09-12T07:16:03;11.07;;;4.35;;
32347;SDS011;18821;44.800;10.326;2022-09-12T07:18:30;10.10;;;5.40;;
32347;SDS011;18821;44.800;10.326;2022-09-12T07:21:00;15.52;;;4.97;;
32347;SDS011;18821;44.800;10.326;2022-09-12T07:23:27;9.25;;;4.78;;
32347;SDS011;18821;44.800;10.326;2022-09-12T07:25:55;10.65;;;5.20;;
32347;SDS011;18821;44.800;10.326;2022-09-12T07:28:22;8.70;;;5.00;;
32347;SDS011;18821;44.800;10.326;2022-09-12T07:30:53;14.32;;;5.72;;
32347;SDS011;18821;44.800;10.326;2022-09-12T07:33:19;11.68;;;5.30;;
32347;SDS011;18821;44.800;10.326;2022-09-12T07:35:46;16.10;;;6.75;;
32347;SDS011;18821;44.800;10.326;2022-09-12T07:38:12;12.75;;;7.32;;
32347;SDS011;18821;44.800;10.326;2022-09-12T07:40:38;13.10;;;6.80;;
32347;SDS011;18821;44.800;10.326;2022-09-12T07:43:04;12.88;;;7.25;;
32347;SDS011;18821;44.800;10.326;2022-09-12T07:45:30;17.63;;;8.48;;
32347;SDS011;18821;44.800;10.326;2022-09-12T07:47:56;12.98;;;8.20;;
32347;SDS011;18821;44.800;10.326;2022-09-12T07:50:22;17.15;;;8.82;;
32347;SDS011;18821;44.800;10.326;2022-09-12T07:52:48;16.90;;;9.63;;
32347;SDS011;18821;44.800;10.326;2022-09-12T07:55:14;13.57;;;9.38;;
32347;SDS011;18821;44.800;10.326;2022-09-12T07:57:41;15.20;;;8.30;;
32347;SDS011;18821;44.800;10.326;2022-09-12T08:00:07;28.33;;;8.23;;
32347;SDS011;18821;44.800;10.326;2022-09-12T08:02:37;13.43;;;8.40;;
32347;SDS011;18821;44.800;10.326;2022-09-12T08:05:03;16.08;;;10.70;;
32347;SDS011;18821;44.800;10.326;2022-09-12T08:07:29;24.83;;;10.77;;
32347;SDS011;18821;44.800;10.326;2022-09-12T08:09:55;19.25;;;11.52;;
32347;SDS011;18821;44.800;10.326;2022-09-12T08:12:21;21.75;;;11.10;;
32347;SDS011;18821;44.800;10.326;2022-09-12T08:14:47;24.05;;;11.70;;
32347;SDS011;18821;44.800;10.326;2022-09-12T08:17:13;16.20;;;10.77;;
32347;SDS011;18821;44.800;10.326;2022-09-12T08:19:39;16.95;;;10.25;;
32347;SDS011;18821;44.800;10.326;2022-09-12T08:22:05;13.55;;;9.38;;
32347;SDS011;18821;44.800;10.326;2022-09-12T08:24:31;17.02;;;9.80;;
32347;SDS011;18821;44.800;10.326;2022-09-12T08:26:57;17.13;;;9.00;;
32347;SDS011;18821;44.800;10.326;2022-09-12T08:29:23;12.77;;;9.45;;
32347;SDS011;18821;44.800;10.326;2022-09-12T08:31:49;14.48;;;10.23;;
32347;SDS011;18821;44.800;10.326;2022-09-12T08:34:15;16.48;;;10.23;;
32347;SDS011;18821;44.800;10.326;2022-09-12T08:36:43;12.18;;;9.15;;
32347;SDS011;18821;44.800;10.326;2022-09-12T08:39:12;14.25;;;8.30;;
32347;SDS011;18821;44.800;10.326;2022-09-12T08:41:48;12.52;;;6.50;;
32347;SDS011;18821;44.800;10.326;2022-09-12T08:44:49;15.38;;;7.63;;
32347;SDS011;18821;44.800;10.326;2022-09-12T08:47:44;11.00;;;7.38;;
32347;SDS011;18821;44.800;10.326;2022-09-12T08:50:16;15.00;;;8.38;;
32347;SDS011;18821;44.800;10.326;2022-09-12T08:58:23;15.30;;;6.35;;
32347;SDS011;18821;44.800;10.326;2022-09-12T09:06:50;14.43;;;7.13;;
32347;SDS011;18821;44.800;10.326;2022-09-12T09:09:30;13.30;;;6.25;;
32347;SDS011;18821;44.800;10.326;2022-09-12T09:12:23;14.10;;;6.72;;
32347;SDS011;18821;44.800;10.326;2022-09-12T09:17:43;8.02;;;6.28;;
32347;SDS011;18821;44.800;10.326;2022-09-12T09:28:22;11.05;;;5.35;;
32347;SDS011;18821;44.800;10.326;2022-09-12T09:31:03;14.20;;;5.80;;
32347;SDS011;18821;44.800;10.326;2022-09-12T09:33:36;9.73;;;4.78;;
32347;SDS011;18821;44.800;10.326;2022-09-12T09:38:38;10.27;;;5.63;;
32347;SDS011;18821;44.800;10.326;2022-09-12T09:43:35;9.98;;;4.35;;
32347;SDS011;18821;44.800;10.326;2022-09-12T09:46:03;12.88;;;6.13;;
32347;SDS011;18821;44.800;10.326;2022-09-12T09:48:30;9.25;;;5.05;;
32347;SDS011;18821;44.800;10.326;2022-09-12T09:51:02;16.23;;;5.68;;
32347;SDS011;18821;44.800;10.326;2022-09-12T09:53:39;10.07;;;5.70;;
32347;SDS011;18821;44.800;10.326;2022-09-12T10:01:18;10.85;;;5.53;;
32347;SDS011;18821;44.800;10.326;2022-09-12T10:03:49;9.68;;;4.78;;
32347;SDS011;18821;44.800;10.326;2022-09-12T10:08:44;10.70;;;5.28;;
32347;SDS011;18821;44.800;10.326;2022-09-12T10:11:18;8.55;;;4.35;;
32347;SDS011;18821;44.800;10.326;2022-09-12T10:13:55;6.07;;;3.30;;
32347;SDS011;18821;44.800;10.326;2022-09-12T10:18:50;10.07;;;5.10;;
32347;SDS011;18821;44.800;10.326;2022-09-12T10:21:19;14.93;;;5.95;;
32347;SDS011;18821;44.800;10.326;2022-09-12T10:23:50;9.38;;;4.93;;
32347;SDS011;18821;44.800;10.326;2022-09-12T10:26:24;12.15;;;4.75;;
32347;SDS011;18821;44.800;10.326;2022-09-12T10:28:52;9.13;;;4.45;;
32347;SDS011;18821;44.800;10.326;2022-09-12T10:31:26;8.80;;;3.90;;
32347;SDS011;18821;44.800;10.326;2022-09-12T10:33:58;7.07;;;4.32;;
32347;SDS011;18821;44.800;10.326;2022-09-12T10:36:25;10.32;;;5.28;;
32347;SDS011;18821;44.800;10.326;2022-09-12T10:39:03;6.35;;;4.15;;
32347;SDS011;18821;44.800;10.326;2022-09-12T10:41:37;7.45;;;4.90;;
32347;SDS011;18821;44.800;10.326;2022-09-12T10:44:05;4.97;;;3.90;;
32347;SDS011;18821;44.800;10.326;2022-09-12T10:46:35;12.25;;;4.63;;
32347;SDS011;18821;44.800;10.326;2022-09-12T10:51:39;10.52;;;4.00;;
32347;SDS011;18821;44.800;10.326;2022-09-12T10:54:06;14.80;;;4.97;;
32347;SDS011;18821;44.800;10.326;2022-09-12T10:56:35;8.30;;;4.70;;
32347;SDS011;18821;44.800;10.326;2022-09-12T11:01:54;9.75;;;5.00;;
32347;SDS011;18821;44.800;10.326;2022-09-12T11:08:12;10.40;;;4.70;;
32347;SDS011;18821;44.800;10.326;2022-09-12T11:10:58;8.85;;;3.45;;
32347;SDS011;18821;44.800;10.326;2022-09-12T11:30:32;17.85;;;4.55;;
32347;SDS011;18821;44.800;10.326;2022-09-12T11:34:07;7.38;;;3.13;;
32347;SDS011;18821;44.800;10.326;2022-09-12T11:36:04;6.68;;;2.80;;
32347;SDS011;18821;44.800;10.326;2022-09-12T11:41:43;5.45;;;2.30;;
32347;SDS011;18821;44.800;10.326;2022-09-12T11:47:05;7.68;;;1.92;;
32347;SDS011;18821;44.800;10.326;2022-09-12T11:49:37;6.53;;;2.78;;
32347;SDS011;18821;44.800;10.326;2022-09-12T11:52:23;6.15;;;3.78;;
32347;SDS011;18821;44.800;10.326;2022-09-12T11:54:54;5.38;;;3.30;;
32347;SDS011;18821;44.800;10.326;2022-09-12T12:00:23;5.30;;;2.55;;
32347;SDS011;18821;44.800;10.326;2022-09-12T12:05:54;8.65;;;3.38;;
32347;SDS011;18821;44.800;10.326;2022-09-12T12:08:31;5.78;;;3.00;;
32347;SDS011;18821;44.800;10.326;2022-09-12T12:11:04;6.05;;;2.38;;
32347;SDS011;18821;44.800;10.326;2022-09-12T12:16:29;6.95;;;3.08;;
32347;SDS011;18821;44.800;10.326;2022-09-12T12:19:02;4.70;;;2.58;;
32347;SDS011;18821;44.800;10.326;2022-09-12T12:29:10;7.15;;;2.42;;
32347;SDS011;18821;44.800;10.326;2022-09-12T12:34:42;5.68;;;1.95;;
32347;SDS011;18821;44.800;10.326;2022-09-12T12:45:43;4.70;;;2.25;;
32347;SDS011;18821;44.800;10.326;2022-09-12T12:47:52;7.20;;;2.00;;
32347;SDS011;18821;44.800;10.326;2022-09-12T12:50:24;6.70;;;1.83;;
32347;SDS011;18821;44.800;10.326;2022-09-12T12:52:53;4.57;;;1.60;;
32347;SDS011;18821;44.800;10.326;2022-09-12T12:55:30;4.95;;;1.80;;
32347;SDS011;18821;44.800;10.326;2022-09-12T12:57:58;5.57;;;1.52;;
32347;SDS011;18821;44.800;10.326;2022-09-12T13:00:28;4.45;;;2.03;;
32347;SDS011;18821;44.800;10.326;2022-09-12T13:05:40;4.50;;;1.60;;
32347;SDS011;18821;44.800;10.326;2022-09-12T13:10:48;3.17;;;1.30;;
32347;SDS011;18821;44.800;10.326;2022-09-12T13:19:01;3.78;;;1.45;;
32347;SDS011;18821;44.800;10.326;2022-09-12T13:21:36;4.13;;;1.60;;
32347;SDS011;18821;44.800;10.326;2022-09-12T13:26:39;6.57;;;1.75;;
32347;SDS011;18821;44.800;10.326;2022-09-12T13:29:12;5.40;;;1.65;;
32347;SDS011;18821;44.800;10.326;2022-09-12T13:31:39;3.15;;;1.60;;
32347;SDS011;18821;44.800;10.326;2022-09-12T13:34:06;7.35;;;1.73;;
32347;SDS011;18821;44.800;10.326;2022-09-12T13:39:19;3.47;;;1.27;;
32347;SDS011;18821;44.800;10.326;2022-09-12T13:45:02;7.15;;;1.90;;
32347;SDS011;18821;44.800;10.326;2022-09-12T13:47:56;4.40;;;1.65;;
32347;SDS011;18821;44.800;10.326;2022-09-12T13:50:27;3.72;;;1.30;;
32347;SDS011;18821;44.800;10.326;2022-09-12T13:52:59;4.00;;;1.90;;
32347;SDS011;18821;44.800;10.326;2022-09-12T13:55:47;7.15;;;1.80;;
32347;SDS011;18821;44.800;10.326;2022-09-12T13:58:27;7.15;;;1.73;;
32347;SDS011;18821;44.800;10.326;2022-09-12T14:01:11;4.40;;;1.52;;
32347;SDS011;18821;44.800;10.326;2022-09-12T14:03:50;4.88;;;1.63;;
32347;SDS011;18821;44.800;10.326;2022-09-12T14:06:49;2.95;;;1.25;;
32347;SDS011;18821;44.800;10.326;2022-09-12T14:12:03;3.33;;;1.83;;
32347;SDS011;18821;44.800;10.326;2022-09-12T14:14:42;3.47;;;1.90;;
32347;SDS011;18821;44.800;10.326;2022-09-12T14:20:07;3.30;;;2.08;;
32347;SDS011;18821;44.800;10.326;2022-09-12T14:22:39;2.97;;;1.60;;
32347;SDS011;18821;44.800;10.326;2022-09-12T14:25:06;6.53;;;1.67;;
32347;SDS011;18821;44.800;10.326;2022-09-12T14:27:47;3.72;;;1.70;;
32347;SDS011;18821;44.800;10.326;2022-09-12T14:30:22;6.53;;;1.60;;
32347;SDS011;18821;44.800;10.326;2022-09-12T14:35:48;3.70;;;1.20;;
32347;SDS011;18821;44.800;10.326;2022-09-12T14:38:18;5.03;;;1.63;;
32347;SDS011;18821;44.800;10.326;2022-09-12T14:40:51;8.90;;;1.67;;
32347;SDS011;18821;44.800;10.326;2022-09-12T14:46:23;3.92;;;1.40;;
32347;SDS011;18821;44.800;10.326;2022-09-12T14:48:52;6.80;;;1.83;;
32347;SDS011;18821;44.800;10.326;2022-09-12T14:51:30;4.45;;;1.50;;
32347;SDS011;18821;44.800;10.326;2022-09-12T14:53:59;7.30;;;1.83;;
32347;SDS011;18821;44.800;10.326;2022-09-12T15:04:41;8.45;;;1.58;;
32347;SDS011;18821;44.800;10.326;2022-09-12T15:07:53;3.20;;;1.33;;
32347;SDS011;18821;44.800;10.326;2022-09-12T15:10:05;6.78;;;1.20;;
32347;SDS011;18821;44.800;10.326;2022-09-12T15:12:40;5.28;;;1.30;;
32347;SDS011;18821;44.800;10.326;2022-09-12T15:15:17;4.03;;;1.70;;
32347;SDS011;18821;44.800;10.326;2022-09-12T15:17:45;5.70;;;1.60;;
32347;SDS011;18821;44.800;10.326;2022-09-12T15:20:12;3.78;;;2.00;;
32347;SDS011;18821;44.800;10.326;2022-09-12T15:22:39;3.95;;;1.25;;
32347;SDS011;18821;44.800;10.326;2022-09-12T15:25:06;5.65;;;1.73;;
32347;SDS011;18821;44.800;10.326;2022-09-12T15:27:34;4.45;;;1.65;;
32347;SDS011;18821;44.800;10.326;2022-09-12T15:30:08;6.18;;;1.33;;
32347;SDS011;18821;44.800;10.326;2022-09-12T15:32:34;3.53;;;1.73;;
32347;SDS011;18821;44.800;10.326;2022-09-12T15:35:01;9.43;;;1.60;;
32347;SDS011;18821;44.800;10.326;2022-09-12T15:37:27;4.10;;;1.60;;
32347;SDS011;18821;44.800;10.326;2022-09-12T15:39:53;8.35;;;1.50;;
32347;SDS011;18821;44.800;10.326;2022-09-12T15:42:23;5.07;;;1.60;;
32347;SDS011;18821;44.800;10.326;2022-09-12T15:44:54;3.50;;;1.40;;
32347;SDS011;18821;44.800;10.326;2022-09-12T15:47:20;3.83;;;1.35;;
32347;SDS011;18821;44.800;10.326;2022-09-12T15:49:47;4.50;;;1.40;;
32347;SDS011;18821;44.800;10.326;2022-09-12T15:52:14;6.00;;;1.67;;
32347;SDS011;18821;44.800;10.326;2022-09-12T15:54:40;5.60;;;1.40;;
32347;SDS011;18821;44.800;10.326;2022-09-12T15:57:06;4.82;;;1.80;;
32347;SDS011;18821;44.800;10.326;2022-09-12T15:59:34;2.95;;;1.50;;
32347;SDS011;18821;44.800;10.326;2022-09-12T16:02:00;3.55;;;1.13;;
32347;SDS011;18821;44.800;10.326;2022-09-12T16:04:27;9.02;;;1.58;;
32347;SDS011;18821;44.800;10.326;2022-09-12T16:06:55;4.68;;;1.30;;
32347;SDS011;18821;44.800;10.326;2022-09-12T16:09:21;3.58;;;1.20;;
32347;SDS011;18821;44.800;10.326;2022-09-12T16:11:48;2.70;;;1.30;;
32347;SDS011;18821;44.800;10.326;2022-09-12T16:14:15;9.27;;;1.58;;
32347;SDS011;18821;44.800;10.326;2022-09-12T16:16:43;4.82;;;1.50;;
32347;SDS011;18821;44.800;10.326;2022-09-12T16:19:15;5.20;;;1.58;;
32347;SDS011;18821;44.800;10.326;2022-09-12T16:21:41;2.67;;;1.23;;
32347;SDS011;18821;44.800;10.326;2022-09-12T16:24:07;6.75;;;1.65;;
32347;SDS011;18821;44.800;10.326;2022-09-12T16:26:33;2.85;;;1.27;;
32347;SDS011;18821;44.800;10.326;2022-09-12T16:28:59;9.57;;;1.88;;
32347;SDS011;18821;44.800;10.326;2022-09-12T16:31:25;5.43;;;1.58;;
32347;SDS011;18821;44.800;10.326;2022-09-12T16:33:53;7.78;;;2.25;;
32347;SDS011;18821;44.800;10.326;2022-09-12T16:36:20;4.13;;;1.55;;
32347;SDS011;18821;44.800;10.326;2022-09-12T16:38:47;6.65;;;1.70;;
32347;SDS011;18821;44.800;10.326;2022-09-12T16:41:17;9.68;;;1.60;;
32347;SDS011;18821;44.800;10.326;2022-09-12T16:43:44;10.30;;;2.15;;
32347;SDS011;18821;44.800;10.326;2022-09-12T16:46:11;8.20;;;1.63;;
32347;SDS011;18821;44.800;10.326;2022-09-12T16:48:42;6.05;;;1.42;;
32347;SDS011;18821;44.800;10.326;2022-09-12T16:51:10;5.60;;;1.58;;
32347;SDS011;18821;44.800;10.326;2022-09-12T16:53:36;5.18;;;1.92;;
32347;SDS011;18821;44.800;10.326;2022-09-12T16:56:03;9.50;;;2.08;;
32347;SDS011;18821;44.800;10.326;2022-09-12T16:58:31;5.18;;;1.40;;
32347;SDS011;18821;44.800;10.326;2022-09-12T17:00:59;7.47;;;2.17;;
32347;SDS011;18821;44.800;10.326;2022-09-12T17:03:28;6.68;;;2.00;;
32347;SDS011;18821;44.800;10.326;2022-09-12T17:06:08;3.55;;;1.88;;
32347;SDS011;18821;44.800;10.326;2022-09-12T17:08:41;5.03;;;1.45;;
32347;SDS011;18821;44.800;10.326;2022-09-12T17:11:09;6.82;;;1.52;;
32347;SDS011;18821;44.800;10.326;2022-09-12T17:13:39;3.33;;;1.52;;
32347;SDS011;18821;44.800;10.326;2022-09-12T17:16:06;7.25;;;1.75;;
32347;SDS011;18821;44.800;10.326;2022-09-12T17:18:36;7.05;;;1.95;;
32347;SDS011;18821;44.800;10.326;2022-09-12T17:21:02;5.75;;;1.80;;
32347;SDS011;18821;44.800;10.326;2022-09-12T17:23:30;6.03;;;2.00;;
32347;SDS011;18821;44.800;10.326;2022-09-12T17:25:57;9.98;;;2.10;;
32347;SDS011;18821;44.800;10.326;2022-09-12T17:28:24;4.35;;;1.52;;
32347;SDS011;18821;44.800;10.326;2022-09-12T17:30:55;10.07;;;2.42;;
32347;SDS011;18821;44.800;10.326;2022-09-12T17:33:25;14.80;;;2.58;;
32347;SDS011;18821;44.800;10.326;2022-09-12T17:35:51;6.65;;;2.33;;
32347;SDS011;18821;44.800;10.326;2022-09-12T17:38:17;8.02;;;2.75;;
32347;SDS011;18821;44.800;10.326;2022-09-12T17:40:44;4.45;;;2.22;;
32347;SDS011;18821;44.800;10.326;2022-09-12T17:43:13;4.60;;;2.20;;
32347;SDS011;18821;44.800;10.326;2022-09-12T17:45:39;7.93;;;2.17;;
32347;SDS011;18821;44.800;10.326;2022-09-12T17:48:05;6.38;;;1.92;;
32347;SDS011;18821;44.800;10.326;2022-09-12T17:50:34;8.23;;;2.28;;
32347;SDS011;18821;44.800;10.326;2022-09-12T17:53:01;6.18;;;1.70;;
32347;SDS011;18821;44.800;10.326;2022-09-12T17:55:27;6.82;;;2.50;;
32347;SDS011;18821;44.800;10.326;2022-09-12T17:57:57;3.65;;;2.13;;
32347;SDS011;18821;44.800;10.326;2022-09-12T18:00:25;4.78;;;2.00;;
32347;SDS011;18821;44.800;10.326;2022-09-12T18:03:12;4.53;;;2.03;;
32347;SDS011;18821;44.800;10.326;2022-09-12T18:05:45;7.65;;;2.30;;